createdAt,value
2023-04-09T08:52:03.792Z,100.00
2023-04-09T08:54:07.532Z,100.00
2023-04-09T08:56:09.868Z,100.00
2023-04-09T08:58:12.410Z,100.00
2023-04-09T09:00:15.276Z,100.00
2023-04-09T09:02:17.656Z,100.00
2023-04-09T09:04:20.497Z,100.00
2023-04-09T09:06:29.286Z,100.00
2023-04-09T09:08:31.568Z,100.00
2023-04-09T09:10:40.024Z,100.00
2023-04-09T09:12:43.193Z,100.00
2023-04-09T09:14:46.487Z,100.00
2023-04-09T09:16:58.084Z,100.00
2023-04-09T09:19:02.683Z,100.00
2023-04-09T09:21:19.472Z,100.00
2023-04-09T09:23:35.123Z,100.00
2023-04-09T09:25:41.723Z,100.00
2023-04-09T09:27:44.144Z,100.00
2023-04-09T09:29:46.558Z,100.00
2023-04-09T09:31:51.138Z,100.00
2023-04-09T09:33:54.201Z,100.00
2023-04-09T09:35:57.844Z,100.00
2023-04-09T09:38:04.590Z,100.00
2023-04-09T09:40:07.844Z,100.00
2023-04-09T09:42:10.219Z,100.00
2023-04-09T09:44:30.109Z,100.00
2023-04-09T09:46:35.491Z,100.00
2023-04-09T09:48:38.795Z,100.00
2023-04-09T09:50:42.388Z,100.00
2023-04-09T09:52:46.604Z,100.00
2023-04-09T09:54:54.913Z,100.00
2023-04-09T09:57:04.864Z,100.00
2023-04-09T09:59:16.206Z,100.00
2023-04-09T10:01:21.889Z,100.00
2023-04-09T10:03:30.995Z,100.00
2023-04-09T10:05:36.284Z,100.00
2023-04-09T10:07:39.330Z,100.00
2023-04-09T10:09:46.610Z,100.00
2023-04-09T10:11:49.671Z,100.00
2023-04-09T10:13:57.902Z,100.00
2023-04-09T10:16:01.961Z,100.00
2023-04-09T10:18:04.517Z,100.00
2023-04-09T10:20:18.540Z,100.00
2023-04-09T10:22:26.715Z,100.00
2023-04-09T10:24:29.197Z,100.00
2023-04-09T10:26:36.450Z,100.00
2023-04-09T10:28:39.419Z,100.00
2023-04-09T10:30:42.656Z,100.00
2023-04-09T10:32:46.841Z,100.00
2023-04-09T10:34:50.884Z,100.00
2023-04-09T10:36:56.785Z,100.00
2023-04-09T10:38:59.153Z,100.00
2023-04-09T10:41:27.763Z,100.00
2023-04-09T10:43:30.673Z,100.00
2023-04-09T10:45:41.740Z,100.00
2023-04-09T10:47:46.310Z,100.00
2023-04-09T10:49:49.416Z,100.00
2023-04-09T10:51:53.666Z,100.00
2023-04-09T10:53:56.387Z,100.00
2023-04-09T10:55:58.782Z,98.30
2023-04-09T10:58:01.115Z,98.46
2023-04-09T11:00:04.210Z,96.76
2023-04-09T11:02:09.176Z,95.20
2023-04-09T11:04:18.770Z,93.08
2023-04-09T11:06:22.422Z,94.53
2023-04-09T11:08:29.013Z,95.12
2023-04-09T11:10:32.752Z,96.27
2023-04-09T11:12:35.583Z,97.89
2023-04-09T11:14:37.898Z,100.00
2023-04-09T11:16:40.736Z,100.00
2023-04-09T11:18:43.572Z,100.00
2023-04-09T11:20:46.297Z,100.00
2023-04-09T11:22:53.905Z,100.00
2023-04-09T11:24:56.816Z,100.00
2023-04-09T11:27:02.101Z,100.00
2023-04-09T11:29:09.148Z,100.00
2023-04-09T11:31:11.847Z,100.00
2023-04-09T11:33:15.179Z,100.00
2023-04-09T11:35:21.107Z,100.00
2023-04-09T11:37:23.999Z,100.00
2023-04-09T11:39:26.475Z,100.00
2023-04-09T11:41:36.006Z,100.00
2023-04-09T11:43:38.561Z,100.00
2023-04-09T11:45:41.234Z,100.00
2023-04-09T11:47:45.210Z,100.00
2023-04-09T11:49:47.914Z,100.00
2023-04-09T11:51:50.987Z,100.00
2023-04-09T11:53:53.832Z,100.00
2023-04-09T11:55:56.661Z,100.00
2023-04-09T11:58:02.905Z,100.00
2023-04-09T12:00:16.777Z,100.00
2023-04-09T12:02:19.798Z,99.20
2023-04-09T12:04:22.281Z,98.75
2023-04-09T12:06:28.009Z,98.64
2023-04-09T12:08:31.490Z,97.39
2023-04-09T12:10:36.368Z,98.17
2023-04-09T12:12:47.369Z,94.90
2023-04-09T12:14:51.985Z,92.27
2023-04-09T12:16:54.333Z,91.24
2023-04-09T12:18:56.715Z,92.13
2023-04-09T12:21:01.450Z,91.40
2023-04-09T12:23:04.987Z,89.32
2023-04-09T12:25:08.680Z,86.79
2023-04-09T12:27:11.277Z,82.40
2023-04-09T12:29:15.958Z,76.99
2023-04-09T12:31:18.345Z,68.47
2023-04-09T12:33:21.836Z,61.63
2023-04-09T12:35:24.355Z,51.86
2023-04-09T12:37:26.750Z,46.24
2023-04-09T12:39:29.337Z,41.61
2023-04-09T12:41:31.676Z,43.47
2023-04-09T12:43:34.070Z,41.84
2023-04-09T12:45:36.900Z,39.77
2023-04-09T12:47:39.968Z,37.53
2023-04-09T12:49:45.350Z,35.36
2023-04-09T12:51:47.921Z,36.20
2023-04-09T12:53:50.559Z,35.70
2023-04-09T12:55:52.985Z,32.57
2023-04-09T12:57:55.539Z,32.62
2023-04-09T12:59:58.168Z,33.04
2023-04-09T13:02:00.969Z,31.16
2023-04-09T13:04:03.827Z,29.64
2023-04-09T13:06:06.981Z,29.07
2023-04-09T13:08:09.438Z,29.09
2023-04-09T13:10:12.251Z,29.61
2023-04-09T13:12:16.084Z,29.25
2023-04-09T13:14:18.447Z,31.40
2023-04-09T13:16:21.150Z,33.26
2023-04-09T13:18:23.535Z,33.37
2023-04-09T13:20:26.250Z,35.04
2023-04-09T13:22:28.952Z,33.26
2023-04-09T13:24:31.402Z,31.61
2023-04-09T13:26:33.833Z,29.29
2023-04-09T13:28:36.703Z,29.04
2023-04-09T13:30:39.055Z,30.29
2023-04-09T13:32:42.264Z,29.64
2023-04-09T13:34:44.901Z,30.59
2023-04-09T13:36:47.244Z,33.02
2023-04-09T13:38:49.565Z,37.58
2023-04-09T13:40:52.257Z,39.67
2023-04-09T13:42:54.506Z,36.54
2023-04-09T13:44:57.549Z,37.48
2023-04-09T13:47:00.546Z,39.47
2023-04-09T13:49:03.301Z,42.34
2023-04-09T13:51:06.956Z,43.06
2023-04-09T13:53:09.651Z,44.54
2023-04-09T13:55:12.138Z,46.27
2023-04-09T13:57:14.655Z,46.90
2023-04-09T13:59:17.360Z,47.24
2023-04-09T14:01:19.764Z,49.62
2023-04-09T14:03:22.512Z,51.91
2023-04-09T14:05:25.074Z,53.43
2023-04-09T14:07:27.383Z,54.70
2023-04-09T14:09:30.389Z,58.30
2023-04-09T14:11:32.790Z,62.47
2023-04-09T14:13:35.126Z,63.00
2023-04-09T14:15:38.367Z,60.27
2023-04-09T14:17:40.801Z,58.73
2023-04-09T14:19:43.194Z,60.18
2023-04-09T14:21:46.106Z,59.01
2023-04-09T14:23:48.509Z,56.80
2023-04-09T14:25:51.353Z,52.37
2023-04-09T14:27:53.915Z,48.70
2023-04-09T14:29:56.268Z,47.56
2023-04-09T14:31:58.710Z,47.80
2023-04-09T14:34:01.244Z,48.77
2023-04-09T14:36:03.837Z,50.61
2023-04-09T14:38:06.360Z,52.76
2023-04-09T14:40:09.678Z,53.65
2023-04-09T14:42:12.625Z,53.98
2023-04-09T14:44:15.075Z,54.59
2023-04-09T14:46:17.723Z,55.29
2023-04-09T14:48:20.368Z,56.85
2023-04-09T14:50:22.726Z,57.77
2023-04-09T14:52:25.918Z,57.53
2023-04-09T14:54:30.402Z,56.75
2023-04-09T14:56:32.805Z,56.32
2023-04-09T14:58:36.358Z,56.10
2023-04-09T15:00:39.068Z,57.05
2023-04-09T15:02:41.876Z,57.69
2023-04-09T15:04:44.935Z,57.15
2023-04-09T15:06:47.968Z,57.29
2023-04-09T15:08:50.445Z,57.65
2023-04-09T15:10:53.172Z,58.83
2023-04-09T15:12:55.538Z,60.09
2023-04-09T15:14:58.520Z,60.13
2023-04-09T15:17:01.104Z,59.54
2023-04-09T15:19:04.072Z,59.21
2023-04-09T15:21:07.136Z,59.28
2023-04-09T15:23:10.834Z,59.36
2023-04-09T15:25:14.389Z,60.16
2023-04-09T15:27:18.300Z,61.41
2023-04-09T15:29:20.921Z,62.49
2023-04-09T15:31:23.309Z,63.24
2023-04-09T15:33:27.314Z,63.91
2023-04-09T15:35:29.994Z,65.78
2023-04-09T15:37:32.663Z,67.84
2023-04-09T15:39:35.199Z,69.11
2023-04-09T15:41:38.081Z,70.03
2023-04-09T15:43:40.385Z,72.37
2023-04-09T15:45:43.002Z,73.91
2023-04-09T15:47:46.256Z,76.46
2023-04-09T15:49:48.654Z,78.84
2023-04-09T15:51:51.024Z,83.12
2023-04-09T15:53:53.627Z,83.71
2023-04-09T15:55:56.019Z,87.56
2023-04-09T15:57:58.325Z,91.35
2023-04-09T16:00:01.095Z,94.80
2023-04-09T16:02:04.567Z,99.04
2023-04-09T16:04:09.029Z,100.00
2023-04-09T16:06:14.842Z,100.00
2023-04-09T16:08:17.105Z,100.00
2023-04-09T16:10:19.835Z,100.00
2023-04-09T16:12:23.322Z,100.00
2023-04-09T16:14:25.601Z,100.00
2023-04-09T16:16:28.203Z,100.00
2023-04-09T16:18:30.662Z,100.00
2023-04-09T16:20:33.130Z,100.00
2023-04-09T16:22:35.739Z,100.00
2023-04-09T16:24:38.080Z,100.00
2023-04-09T16:26:42.225Z,100.00
2023-04-09T16:28:44.851Z,100.00
2023-04-09T16:30:47.701Z,100.00
2023-04-09T16:32:50.452Z,100.00
2023-04-09T16:34:53.052Z,100.00
2023-04-09T16:36:55.346Z,100.00
2023-04-09T16:38:58.108Z,100.00
2023-04-09T16:41:00.936Z,100.00
2023-04-09T16:43:03.746Z,100.00
2023-04-09T16:45:06.565Z,100.00
2023-04-09T16:47:09.235Z,100.00
2023-04-09T16:49:11.665Z,100.00
2023-04-09T16:51:13.962Z,100.00
2023-04-09T16:53:16.648Z,100.00
2023-04-09T16:55:19.002Z,100.00
2023-04-09T16:57:21.284Z,100.00
2023-04-09T16:59:24.214Z,100.00
2023-04-09T17:01:27.675Z,100.00
2023-04-09T17:03:30.110Z,100.00
2023-04-09T17:05:32.888Z,100.00
2023-04-09T17:07:35.423Z,100.00
2023-04-09T17:09:38.051Z,100.00
2023-04-09T17:11:40.791Z,100.00
2023-04-09T17:13:43.150Z,100.00
2023-04-09T17:15:45.433Z,100.00
2023-04-09T17:17:51.270Z,100.00
2023-04-09T17:19:53.705Z,100.00
2023-04-09T17:21:57.145Z,100.00
2023-04-09T17:24:01.871Z,100.00
2023-04-09T17:26:04.406Z,100.00
2023-04-09T17:28:07.009Z,100.00
2023-04-09T17:30:10.159Z,100.00
2023-04-09T17:32:12.444Z,100.00
2023-04-09T17:34:16.390Z,100.00
2023-04-09T17:36:20.694Z,100.00
2023-04-09T17:38:25.131Z,100.00
2023-04-09T17:40:28.532Z,100.00
2023-04-09T17:42:31.317Z,100.00
2023-04-09T17:44:35.448Z,100.00
2023-04-09T17:46:39.186Z,100.00
2023-04-09T17:48:42.085Z,100.00
2023-04-09T17:50:44.378Z,100.00
2023-04-09T17:52:47.453Z,100.00
2023-04-09T17:54:51.029Z,100.00
2023-04-09T17:56:53.432Z,100.00
2023-04-09T17:58:55.723Z,100.00
2023-04-09T18:00:59.621Z,100.00
2023-04-09T18:03:02.629Z,100.00
2023-04-09T18:05:05.472Z,100.00
2023-04-09T18:07:08.009Z,100.00
2023-04-09T18:09:10.902Z,100.00
2023-04-09T18:11:15.626Z,100.00
2023-04-09T18:13:18.007Z,100.00
2023-04-09T18:15:21.828Z,100.00
2023-04-09T18:17:26.277Z,100.00
2023-04-09T18:19:28.633Z,100.00
2023-04-09T18:21:31.730Z,100.00
2023-04-09T18:23:34.179Z,100.00
2023-04-09T18:25:37.630Z,100.00
2023-04-09T18:27:40.410Z,100.00
2023-04-09T18:29:42.705Z,100.00
2023-04-09T18:31:45.668Z,100.00
2023-04-09T18:33:48.380Z,100.00
2023-04-09T18:35:50.997Z,100.00
2023-04-09T18:37:53.585Z,100.00
2023-04-09T18:39:56.683Z,100.00
2023-04-09T18:41:58.968Z,100.00
2023-04-09T18:44:01.462Z,100.00
2023-04-09T18:46:04.341Z,100.00
2023-04-09T18:48:08.199Z,100.00
2023-04-09T18:50:11.267Z,100.00
2023-04-09T18:52:13.947Z,100.00
2023-04-09T18:54:16.349Z,100.00
2023-04-09T18:56:20.133Z,100.00
2023-04-09T18:58:24.331Z,100.00
2023-04-09T19:00:27.747Z,100.00
2023-04-09T19:02:30.453Z,100.00
2023-04-09T19:04:39.619Z,100.00
2023-04-09T19:06:44.668Z,100.00
2023-04-09T19:08:48.282Z,100.00
2023-04-09T19:10:51.292Z,100.00
2023-04-09T19:12:54.474Z,100.00
2023-04-09T19:14:56.915Z,100.00
2023-04-09T19:17:00.037Z,100.00
2023-04-09T19:19:02.592Z,100.00
2023-04-09T19:21:07.628Z,100.00
2023-04-09T19:23:10.865Z,100.00
2023-04-09T19:25:13.272Z,100.00
2023-04-09T19:27:15.828Z,100.00
2023-04-09T19:29:19.284Z,100.00
2023-04-09T19:31:22.212Z,100.00
2023-04-09T19:33:26.565Z,100.00
2023-04-09T19:35:29.686Z,100.00
2023-04-09T19:37:32.135Z,100.00
2023-04-09T19:39:34.608Z,100.00
2023-04-09T19:41:37.273Z,100.00
2023-04-09T19:43:42.024Z,100.00
2023-04-09T19:45:44.518Z,100.00
2023-04-09T19:47:47.178Z,100.00
2023-04-09T19:49:49.503Z,100.00
2023-04-09T19:51:51.810Z,100.00
2023-04-09T19:53:54.630Z,100.00
2023-04-09T19:55:56.971Z,100.00
2023-04-09T19:57:59.330Z,100.00
2023-04-09T20:00:02.343Z,100.00
2023-04-09T20:02:13.528Z,100.00
2023-04-09T20:04:16.366Z,100.00
2023-04-09T20:06:18.743Z,100.00
2023-04-09T20:08:21.349Z,100.00
2023-04-09T20:10:24.055Z,100.00
2023-04-09T20:12:29.413Z,100.00
2023-04-09T20:14:31.712Z,100.00
2023-04-09T20:16:34.392Z,100.00
2023-04-09T20:18:36.682Z,100.00
2023-04-09T20:20:39.048Z,100.00
2023-04-09T20:22:43.783Z,100.00
2023-04-09T20:24:46.583Z,100.00
2023-04-09T20:26:48.905Z,100.00
2023-04-09T20:28:51.640Z,100.00
2023-04-09T20:30:54.098Z,100.00
2023-04-09T20:32:56.489Z,100.00
2023-04-09T20:34:59.092Z,100.00
2023-04-09T20:39:04.117Z,100.00
2023-04-09T20:41:06.755Z,100.00
2023-04-09T20:43:09.071Z,100.00
2023-04-09T20:45:11.477Z,100.00
2023-04-09T20:47:15.549Z,100.00
2023-04-09T20:49:18.131Z,100.00
2023-04-09T20:51:20.639Z,100.00
2023-04-09T20:53:24.896Z,100.00
2023-04-09T20:55:27.221Z,100.00
2023-04-09T20:57:29.629Z,100.00
2023-04-09T20:59:32.228Z,100.00
2023-04-09T21:01:35.909Z,100.00
2023-04-09T21:03:40.144Z,100.00
2023-04-09T21:05:43.056Z,100.00
2023-04-09T21:07:45.420Z,100.00
2023-04-09T21:09:47.739Z,100.00
2023-04-09T21:11:50.514Z,100.00
2023-04-09T21:13:54.949Z,100.00
2023-04-09T21:15:58.077Z,100.00
2023-04-09T21:18:00.965Z,100.00
2023-04-09T21:20:04.561Z,100.00
2023-04-09T21:22:07.084Z,100.00
2023-04-09T21:24:09.733Z,100.00
2023-04-09T21:26:12.686Z,100.00
2023-04-09T21:28:15.013Z,100.00
2023-04-09T21:30:17.658Z,100.00
2023-04-09T21:32:20.192Z,100.00
2023-04-09T21:34:22.678Z,100.00
2023-04-09T21:36:28.428Z,100.00
2023-04-09T21:38:30.762Z,100.00
2023-04-09T21:40:33.634Z,100.00
2023-04-09T21:42:36.374Z,100.00
2023-04-09T21:44:39.063Z,100.00
2023-04-09T21:46:41.828Z,100.00
2023-04-09T21:48:44.470Z,100.00
2023-04-09T21:50:47.207Z,100.00
2023-04-09T21:52:49.477Z,100.00
2023-04-09T21:54:52.038Z,100.00
2023-04-09T21:56:54.344Z,100.00
